Time;durP1;ratioP1;P1;durP2;ratioP2;P2;SDS_P1;SDS_P2;PMS_P1;PMS_P2;Temp;Humidity;BMP_temperature;BMP_pressure;BME280_temperature;BME280_humidity;BME280_pressure;Samples;Min_cycle;Max_cycle;Signal;HPM_P1;HPM_P2
2021/05/23 00:00:11;;;;;;;4.05;1.32;;;;;;;14.05;74.04;99220.20;1757403;81;21611;-62
2021/05/23 00:02:37;;;;;;;3.15;1.30;;;;;;;13.97;74.48;99220.91;1767242;80;21061;-62
2021/05/23 00:05:06;;;;;;;4.87;1.30;;;;;;;13.84;75.83;99225.84;1759524;80;21021;-62
2021/05/23 00:07:33;;;;;;;5.55;1.15;;;;;;;13.77;76.26;99217.23;1781205;79;21665;-62
2021/05/23 00:09:59;;;;;;;2.75;1.00;;;;;;;13.76;76.65;99214.24;1782779;80;21033;-62
2021/05/23 00:12:25;;;;;;;;;;;;;;;13.71;77.11;99215.73;1748879;82;21639;-62
2021/05/23 00:14:51;;;;;;;1.98;1.40;;;;;;;13.61;77.55;99213.17;1780312;80;20155;-62
2021/05/23 00:17:19;;;;;;;2.47;1.00;;;;;;;13.58;77.66;99215.16;1781934;80;21678;-62
2021/05/23 00:19:46;;;;;;;4.55;1.35;;;;;;;13.68;77.61;99216.31;1767879;80;21532;-62
2021/05/23 00:22:12;;;;;;;;;;;;;;;13.71;77.74;99220.62;1775887;80;21093;-62
2021/05/23 00:24:39;;;;;;;3.33;1.07;;;;;;;13.65;78.11;99212.27;1786880;80;20183;-62
2021/05/23 00:27:05;;;;;;;4.75;1.20;;;;;;;13.57;78.48;99215.70;1774493;80;21092;-61
2021/05/23 00:29:33;;;;;;;2.72;1.22;;;;;;;13.67;78.68;99214.72;1754865;80;21041;-62
2021/05/23 00:32:00;;;;;;;3.65;1.20;;;;;;;13.75;78.23;99220.82;1767130;79;21164;-62
2021/05/23 00:34:27;;;;;;;1.47;0.95;;;;;;;13.75;78.26;99219.45;1755478;81;21607;-62
2021/05/23 00:36:54;;;;;;;2.27;1.17;;;;;;;13.71;78.21;99208.31;1770687;81;21105;-62
2021/05/23 00:39:20;;;;;;;3.87;1.17;;;;;;;13.73;78.14;99216.22;1746562;82;21033;-62
2021/05/23 00:41:47;;;;;;;;;;;;;;;13.77;78.14;99220.79;1764314;79;21093;-61
2021/05/23 00:44:13;;;;;;;4.90;1.85;;;;;;;13.76;78.38;99221.08;1757612;80;20659;-62
2021/05/23 00:46:39;;;;;;;;;;;;;;;13.67;78.91;99216.90;1743892;80;21098;-61
2021/05/23 00:49:06;;;;;;;2.30;1.10;;;;;;;13.68;78.88;99214.39;1753519;81;20222;-61
2021/05/23 00:51:32;;;;;;;;;;;;;;;13.67;78.75;99216.90;1747974;81;21133;-61
2021/05/23 00:53:58;;;;;;;2.30;1.22;;;;;;;13.60;78.76;99206.92;1747381;81;20178;-62
2021/05/23 00:56:25;;;;;;;;;;;;;;;13.46;79.33;99211.58;1749145;81;21063;-61
2021/05/23 00:58:51;;;;;;;3.27;1.10;;;;;;;13.44;79.48;99213.79;1748537;81;20172;-61
2021/05/23 01:01:48;;;;;;;4.03;1.25;;;;;;;13.42;79.46;99225.05;1748302;81;21069;-61
2021/05/23 01:04:14;;;;;;;4.20;1.40;;;;;;;13.39;79.52;99216.64;1766685;81;21049;-61
2021/05/23 01:06:41;;;;;;;3.60;1.32;;;;;;;13.30;79.96;99215.70;1711717;82;21148;-61
2021/05/23 01:09:08;;;;;;;3.70;1.27;;;;;;;13.32;79.98;99219.74;1764447;81;21017;-61
2021/05/23 01:11:48;;;;;;;3.10;1.60;;;;;;;13.44;79.80;99228.83;1756869;81;21064;-61
2021/05/23 01:14:46;;;;;;;4.12;2.60;;;;;;;13.51;79.61;99235.25;1768407;81;21053;-62
2021/05/23 01:17:14;;;;;;;4.95;3.15;;;;;;;13.49;79.66;99236.95;1748463;81;21069;-62
2021/05/23 01:19:55;;;;;;;6.35;2.83;;;;;;;13.57;79.53;99235.44;1776591;81;20993;-62
2021/05/23 01:22:41;;;;;;;3.12;1.92;;;;;;;13.67;79.20;99235.23;1728850;80;21053;-63
2021/05/23 01:25:17;;;;;;;3.42;2.00;;;;;;;13.63;79.28;99243.23;1744619;81;21005;-63
2021/05/23 01:27:47;;;;;;;4.90;1.85;;;;;;;13.58;79.50;99250.16;1710145;82;21094;-62
2021/05/23 01:30:23;;;;;;;4.60;2.12;;;;;;;13.63;79.35;99236.39;1711061;83;21034;-62
2021/05/23 01:32:49;;;;;;;4.55;1.80;;;;;;;13.71;79.06;99237.61;1767201;80;21111;-62
2021/05/23 01:35:32;;;;;;;5.35;2.08;;;;;;;13.63;79.12;99233.66;1765844;81;21072;-63
2021/05/23 01:38:01;;;;;;;2.95;1.70;;;;;;;13.54;79.31;99235.46;1749416;81;21104;-62
2021/05/23 01:40:33;;;;;;;3.08;1.77;;;;;;;13.55;79.29;99239.01;1694959;82;21065;-62
2021/05/23 01:43:00;;;;;;;2.25;1.85;;;;;;;13.59;79.30;99237.30;1772605;80;21104;-62
2021/05/23 01:45:28;;;;;;;12.73;6.95;;;;;;;13.56;79.50;99244.19;1761140;81;21551;-63
2021/05/23 01:47:55;;;;;;;3.77;2.22;;;;;;;13.50;79.82;99250.84;1750003;81;21088;-63
2021/05/23 01:50:21;;;;;;;5.90;2.02;;;;;;;13.51;79.74;99249.74;1762471;81;21025;-63
2021/05/23 01:52:54;;;;;;;6.47;4.25;;;;;;;13.52;79.70;99250.01;1777697;79;21124;-63
2021/05/23 01:55:21;;;;;;;4.65;2.50;;;;;;;13.49;79.92;99245.70;1760301;81;21025;-62
2021/05/23 01:57:48;;;;;;;5.17;3.12;;;;;;;13.39;80.34;99248.86;1752028;81;21085;-63
2021/05/23 02:00:18;;;;;;;4.92;1.77;;;;;;;13.39;80.49;99254.91;1750964;81;20998;-63
2021/05/23 02:02:44;;;;;;;4.08;1.67;;;;;;;13.43;80.49;99255.34;1746761;82;21100;-63
2021/05/23 02:05:12;;;;;;;2.87;1.67;;;;;;;13.42;80.69;99251.56;1751709;81;21568;-63
2021/05/23 02:07:38;;;;;;;3.02;1.70;;;;;;;13.32;81.05;99251.17;1748966;81;21081;-62
2021/05/23 02:10:30;;;;;;;5.37;1.50;;;;;;;13.34;81.21;99259.09;1757041;80;21060;-63
2021/05/23 02:13:02;;;;;;;4.30;1.45;;;;;;;13.39;81.20;99256.28;1670610;83;21654;-62
2021/05/23 02:15:29;;;;;;;5.20;2.20;;;;;;;13.40;81.30;99261.42;1665937;84;21096;-62
2021/05/23 02:17:56;;;;;;;2.80;1.32;;;;;;;13.37;81.62;99262.59;1666342;85;21116;-61
2021/05/23 02:20:27;;;;;;;5.20;1.90;;;;;;;13.43;81.50;99264.92;1668129;84;21120;-62
2021/05/23 02:22:55;;;;;;;5.15;2.05;;;;;;;13.52;81.23;99262.31;1666483;85;21132;-61
2021/05/23 02:25:21;;;;;;;3.98;1.67;;;;;;;13.55;81.30;99274.56;1666692;84;21129;-61
2021/05/23 02:27:52;;;;;;;4.03;1.25;;;;;;;13.52;81.38;99274.62;1669898;84;21096;-61
2021/05/23 02:30:23;;;;;;;2.55;1.60;;;;;;;13.53;81.23;99269.97;1651917;85;21138;-61
2021/05/23 02:32:49;;;;;;;3.22;1.80;;;;;;;13.58;80.99;99274.77;1676189;85;21638;-62
2021/05/23 02:35:17;;;;;;;3.77;1.57;;;;;;;13.58;80.87;99278.87;1620329;87;21072;-62
2021/05/23 02:37:43;;;;;;;2.15;1.12;;;;;;;13.53;80.94;99283.08;1681107;84;21138;-62
2021/05/23 02:40:14;;;;;;;2.67;1.57;;;;;;;13.54;80.89;99277.03;1678336;84;21112;-61
2021/05/23 02:42:40;;;;;;;3.50;1.40;;;;;;;13.59;80.68;99272.84;1667864;84;21100;-62
2021/05/23 02:45:09;;;;;;;3.08;1.82;;;;;;;13.61;80.54;99281.55;1692412;84;21149;-61
2021/05/23 02:47:37;;;;;;;4.37;1.62;;;;;;;13.57;80.67;99277.82;1695089;84;21112;-61
2021/05/23 02:50:05;;;;;;;6.25;1.80;;;;;;;13.52;80.83;99270.52;1691400;84;21075;-62
2021/05/23 02:52:32;;;;;;;2.17;1.50;;;;;;;13.55;80.79;99271.83;1679586;84;21132;-61
2021/05/23 02:54:58;;;;;;;;;;;;;;;13.57;80.73;99277.82;1682652;84;21095;-62
2021/05/23 02:57:24;;;;;;;2.47;1.57;;;;;;;13.58;80.87;99284.34;1678575;84;20457;-62
2021/05/23 02:59:51;;;;;;;3.17;1.65;;;;;;;13.49;81.33;99284.80;1664733;84;21596;-62
2021/05/23 03:02:18;;;;;;;5.65;1.62;;;;;;;13.52;81.28;99284.19;1677589;84;21951;-61
2021/05/23 03:04:44;;;;;;;5.50;1.90;;;;;;;13.59;80.98;99290.07;1666686;84;21021;-61
2021/05/23 03:07:10;;;;;;;;;;;;;;;13.60;80.97;99293.63;1662516;84;21124;-62
2021/05/23 03:09:36;;;;;;;3.35;1.65;;;;;;;13.56;81.13;99298.06;1682837;84;20193;-62
2021/05/23 03:12:04;;;;;;;3.05;1.65;;;;;;;13.51;81.31;99299.52;1689436;84;21120;-61
2021/05/23 03:14:31;;;;;;;4.53;1.70;;;;;;;13.60;81.09;99293.63;1673403;84;21044;-62
2021/05/23 03:16:58;;;;;;;;;;;;;;;13.67;80.98;99300.32;1667468;84;21627;-61
2021/05/23 03:19:26;;;;;;;2.92;1.60;;;;;;;13.68;80.85;99295.08;1676460;84;20162;-61
2021/05/23 03:21:52;;;;;;;2.55;1.70;;;;;;;13.58;81.10;99302.66;1667528;84;21132;-61
2021/05/23 03:24:19;;;;;;;2.75;1.60;;;;;;;13.61;81.00;99305.61;1688508;84;21555;-62
2021/05/23 03:26:46;;;;;;;4.12;1.85;;;;;;;13.72;80.74;99315.80;1647016;86;21129;-61
2021/05/23 03:29:12;;;;;;;;;;;;;;;13.76;80.78;99325.03;1674462;84;21549;-62
2021/05/23 03:31:39;;;;;;;8.13;2.00;;;;;;;13.79;81.10;99322.50;1662622;84;20157;-61
2021/05/23 03:34:05;;;;;;;3.83;2.00;;;;;;;13.72;81.54;99322.09;1682305;84;21125;-62
2021/05/23 03:36:32;;;;;;;;;;;;;;;13.80;81.58;99320.03;1680294;84;21128;-61
2021/05/23 03:38:58;;;;;;;4.28;1.55;;;;;;;13.96;81.48;99317.79;1665599;86;20177;-62
2021/05/23 03:41:25;;;;;;;4.22;1.80;;;;;;;14.06;81.25;99318.16;1666868;84;21124;-62
2021/05/23 03:43:51;;;;;;;4.37;2.12;;;;;;;14.07;80.93;99321.14;1649536;86;21261;-62
2021/05/23 03:46:18;;;;;;;3.55;1.92;;;;;;;14.06;80.82;99321.72;1681445;84;21080;-61
2021/05/23 03:48:44;;;;;;;;;;;;;;;14.07;80.33;99311.00;1689923;84;21112;-62
2021/05/23 03:51:10;;;;;;;3.17;1.85;;;;;;;14.08;79.86;99314.55;1666032;84;20206;-61
2021/05/23 03:53:37;;;;;;;5.83;2.08;;;;;;;14.11;79.93;99329.81;1666032;84;21163;-61
2021/05/23 03:56:04;;;;;;;4.40;1.60;;;;;;;14.28;80.54;99338.77;1688906;84;21115;-62
2021/05/23 03:58:31;;;;;;;3.65;1.60;;;;;;;14.52;80.68;99338.59;1673320;84;21060;-62
2021/05/23 04:00:57;;;;;;;3.40;1.27;;;;;;;14.73;79.39;99347.98;1666472;84;21148;-62
2021/05/23 04:03:26;;;;;;;1.98;1.12;;;;;;;14.91;78.46;99347.02;1674159;84;21622;-62
2021/05/23 04:05:53;;;;;;;2.50;1.37;;;;;;;15.07;77.19;99354.30;1688230;84;21620;-62
2021/05/23 04:08:21;;;;;;;2.62;1.60;;;;;;;15.08;76.52;99363.60;1667842;84;21129;-62
2021/05/23 04:11:10;;;;;;;;;;;;;;;15.06;76.17;99363.09;1676596;84;21127;-62
2021/05/23 04:13:20;;;;;;;3.17;1.20;;;;;;;15.15;75.96;99371.39;1664830;86;20132;-62
2021/05/23 04:15:47;;;;;;;2.50;1.40;;;;;;;15.37;76.22;99372.78;1671638;86;21709;-62
2021/05/23 04:18:13;;;;;;;1.98;1.17;;;;;;;15.67;75.73;99371.22;1672791;86;21080;-62
2021/05/23 04:20:40;;;;;;;3.77;1.40;;;;;;;15.90;74.45;99369.52;1671096;86;21628;-62
2021/05/23 04:23:07;;;;;;;3.55;1.20;;;;;;;15.99;72.56;99368.16;1634552;86;21987;-62
2021/05/23 04:25:33;;;;;;;2.75;1.20;;;;;;;16.11;72.51;99357.41;1671337;86;21115;-61
2021/05/23 04:27:59;;;;;;;;;;;;;;;16.34;71.60;99359.48;1673966;86;21370;-62
2021/05/23 04:30:27;;;;;;;2.67;0.93;;;;;;;16.67;70.25;99353.87;1671870;86;20179;-62
2021/05/23 04:32:55;;;;;;;2.85;1.20;;;;;;;16.73;68.55;99358.08;1669091;86;21163;-62
2021/05/23 04:35:22;;;;;;;2.02;1.10;;;;;;;16.85;68.91;99367.08;1663616;86;21091;-62
2021/05/23 04:37:48;;;;;;;2.25;0.95;;;;;;;17.06;67.89;99368.06;1671299;85;21155;-62
2021/05/23 04:40:15;;;;;;;4.65;0.90;;;;;;;17.21;67.42;99375.02;1658031;85;21126;-62
2021/05/23 04:42:42;;;;;;;3.45;1.00;;;;;;;17.34;66.60;99373.47;1669557;85;21119;-62
2021/05/23 04:47:21;;;;;;;2.35;0.90;;;;;;;17.77;64.86;99372.62;1798601;79;23050;-62
2021/05/23 04:49:47;;;;;;;2.25;0.98;;;;;;;17.76;64.11;99369.63;1718567;81;21089;-62
2021/05/23 04:52:15;;;;;;;2.30;0.90;;;;;;;17.99;63.24;99377.91;1755649;80;21674;-62
2021/05/23 04:54:43;;;;;;;2.17;1.10;;;;;;;18.10;61.25;99377.80;1756603;81;21017;-62
2021/05/23 04:57:09;;;;;;;1.62;0.68;;;;;;;18.05;60.74;99381.28;1756904;81;21088;-61
2021/05/23 04:59:36;;;;;;;3.33;0.90;;;;;;;17.95;61.36;99385.78;1752359;81;21077;-62
2021/05/23 05:02:03;;;;;;;1.75;1.00;;;;;;;17.88;61.33;99389.04;1753098;80;21155;-62
2021/05/23 05:04:29;;;;;;;2.10;1.00;;;;;;;17.79;62.07;99393.74;1754013;81;21505;-62
2021/05/23 05:06:56;;;;;;;1.98;1.10;;;;;;;17.71;61.58;99391.84;1751510;80;21096;-62
2021/05/23 05:09:23;;;;;;;2.67;1.10;;;;;;;17.73;61.69;99396.44;1754512;81;21052;-62
2021/05/23 05:11:49;;;;;;;2.50;0.93;;;;;;;17.72;62.48;99399.75;1752228;82;21096;-62
2021/05/23 05:14:15;;;;;;;1.87;1.00;;;;;;;17.73;62.81;99402.75;1755007;80;21570;-63
2021/05/23 05:16:42;;;;;;;2.25;1.10;;;;;;;17.55;62.25;99403.88;1752864;80;21083;-61
2021/05/23 05:19:09;;;;;;;3.85;1.20;;;;;;;17.28;63.39;99414.67;1757070;81;22056;-62
2021/05/23 05:21:35;;;;;;;2.35;1.10;;;;;;;17.00;62.55;99419.42;1754630;81;21140;-62
2021/05/23 05:24:02;;;;;;;1.77;1.27;;;;;;;16.91;63.10;99424.89;1755076;80;21056;-61
2021/05/23 05:26:29;;;;;;;2.08;1.10;;;;;;;17.03;64.06;99425.08;1749866;81;21115;-60
2021/05/23 05:28:55;;;;;;;;;;;;;;;17.21;64.15;99426.72;1757681;81;21049;-60
2021/05/23 05:31:22;;;;;;;2.65;0.80;;;;;;;17.40;63.90;99425.81;1754576;81;20463;-60
2021/05/23 05:33:48;;;;;;;3.58;1.10;;;;;;;17.51;62.64;99422.73;1754419;81;21096;-60
2021/05/23 05:36:15;;;;;;;2.33;1.15;;;;;;;17.55;62.98;99426.45;1756499;81;21570;-60
2021/05/23 05:38:41;;;;;;;1.50;1.02;;;;;;;17.49;62.10;99427.77;1754015;81;21071;-61
2021/05/23 05:41:07;;;;;;;;;;;;;;;17.46;62.88;99427.86;1756607;81;21435;-60
2021/05/23 05:43:33;;;;;;;2.05;1.20;;;;;;;17.40;62.29;99429.13;1729486;81;20200;-61
2021/05/23 05:45:59;;;;;;;;;;;;;;;17.37;62.26;99425.09;1752983;80;21632;-61
2021/05/23 05:48:26;;;;;;;2.55;1.10;;;;;;;17.34;61.33;99424.94;1741249;82;20213;-62
2021/05/23 05:51:01;;;;;;;2.27;1.35;;;;;;;17.14;62.16;99429.14;1740129;82;21085;-62
2021/05/23 05:53:24;;;;;;;2.65;1.22;;;;;;;17.10;62.97;99437.79;1720925;82;21100;-61
2021/05/23 05:55:51;;;;;;;2.60;1.02;;;;;;;17.30;61.78;99433.02;1740838;80;21074;-61
2021/05/23 05:58:17;;;;;;;;;;;;;;;17.52;60.96;99436.18;1744959;80;21077;-61
2021/05/23 06:00:43;;;;;;;4.35;1.10;;;;;;;17.71;61.21;99446.30;1740938;82;20477;-61
2021/05/23 06:03:09;;;;;;;;;;;;;;;17.93;60.86;99446.67;1742283;80;21076;-62
2021/05/23 06:05:35;;;;;;;3.17;1.15;;;;;;;18.15;57.72;99449.22;1739450;80;20221;-62
2021/05/23 06:08:01;;;;;;;;;;;;;;;18.06;56.39;99448.45;1743311;80;21080;-63
2021/05/23 06:10:28;;;;;;;2.35;1.05;;;;;;;17.74;56.78;99453.12;1740436;82;20166;-62
2021/05/23 06:12:54;;;;;;;2.85;1.55;;;;;;;17.23;57.95;99453.89;1745420;80;21670;-62
2021/05/23 06:15:22;;;;;;;2.87;1.20;;;;;;;17.02;59.51;99455.08;1737876;80;21587;-62
2021/05/23 06:17:49;;;;;;;6.08;1.50;;;;;;;17.19;60.76;99454.28;1739459;80;21432;-62
2021/05/23 06:20:16;;;;;;;;;;;;;;;17.47;57.76;99455.59;1743174;82;21552;-63
2021/05/23 06:22:42;;;;;;;;;;;;;;;17.73;58.09;99457.81;1742169;80;20173;-62
2021/05/23 06:25:10;;;;;;;1.67;1.12;;;;;;;17.89;58.45;99449.27;1739862;80;20531;-64
2021/05/23 06:27:37;;;;;;;3.02;1.10;;;;;;;18.08;58.12;99450.86;1740363;82;21081;-63
2021/05/23 06:30:08;;;;;;;2.05;0.90;;;;;;;18.25;55.89;99452.19;1740469;82;21088;-62
2021/05/23 06:32:34;;;;;;;1.57;0.93;;;;;;;18.25;54.61;99455.75;1739556;80;21076;-62
2021/05/23 06:35:01;;;;;;;2.58;1.10;;;;;;;18.30;55.75;99447.31;1739328;80;21553;-61
2021/05/23 06:37:28;;;;;;;2.33;0.98;;;;;;;18.50;55.94;99449.91;1739734;80;21068;-61
2021/05/23 06:39:54;;;;;;;;;;;;;;;18.76;56.20;99451.20;1734533;80;21025;-61
2021/05/23 06:42:20;;;;;;;2.75;1.30;;;;;;;18.77;52.25;99452.83;1740948;80;20510;-62
2021/05/23 06:44:47;;;;;;;2.15;0.90;;;;;;;18.68;51.92;99458.37;1740850;80;21053;-63
2021/05/23 06:47:13;;;;;;;2.12;1.15;;;;;;;18.75;52.53;99450.38;1740089;80;21709;-62
2021/05/23 06:49:41;;;;;;;2.37;0.90;;;;;;;18.84;51.81;99442.89;1735292;80;21088;-63
2021/05/23 06:52:08;;;;;;;2.12;0.90;;;;;;;18.79;53.18;99445.83;1738492;82;21660;-63
2021/05/23 06:54:35;;;;;;;2.65;1.40;;;;;;;18.92;53.49;99441.80;1739933;80;21506;-61
2021/05/23 06:57:04;;;;;;;2.60;1.10;;;;;;;19.16;53.35;99435.05;1740223;82;21105;-62
2021/05/23 06:59:31;;;;;;;1.65;0.88;;;;;;;19.42;52.67;99439.01;1740378;82;21033;-61
2021/05/23 07:01:57;;;;;;;3.25;1.22;;;;;;;19.55;51.06;99440.70;1743677;80;21159;-60
2021/05/23 07:04:24;;;;;;;3.85;0.78;;;;;;;19.71;50.09;99444.45;1745343;80;21053;-62
2021/05/23 07:06:50;;;;;;;2.77;1.10;;;;;;;19.95;50.40;99439.00;1756387;80;21644;-60
2021/05/23 07:09:17;;;;;;;1.75;0.90;;;;;;;20.07;50.04;99443.20;1743210;80;21040;-59
2021/05/23 07:11:45;;;;;;;2.80;1.30;;;;;;;20.16;50.42;99445.28;1693147;82;21172;-61
2021/05/23 07:14:12;;;;;;;3.40;0.70;;;;;;;20.17;47.74;99446.09;1739929;80;21069;-60
2021/05/23 07:16:40;;;;;;;2.77;0.88;;;;;;;20.10;48.38;99444.45;1742659;80;21607;-59
2021/05/23 07:19:07;;;;;;;1.98;1.07;;;;;;;20.23;47.34;99452.44;1740069;80;21013;-61
2021/05/23 07:21:34;;;;;;;1.62;0.75;;;;;;;20.41;49.79;99454.45;1732649;80;21104;-61
2021/05/23 07:24:00;;;;;;;3.02;0.88;;;;;;;20.68;47.35;99454.38;1719477;80;21053;-62
2021/05/23 07:26:26;;;;;;;2.62;1.10;;;;;;;20.53;46.92;99442.61;1735472;80;21081;-60
2021/05/23 07:28:53;;;;;;;4.87;1.10;;;;;;;20.12;47.73;99449.87;1739956;80;21037;-62
2021/05/23 07:31:20;;;;;;;1.98;1.00;;;;;;;20.05;48.27;99454.36;1743776;80;21757;-61
2021/05/23 07:33:47;;;;;;;1.80;0.95;;;;;;;19.97;48.33;99451.11;1737406;80;21092;-62
2021/05/23 07:36:13;;;;;;;2.47;1.00;;;;;;;20.02;48.91;99446.16;1740247;80;21088;-62
2021/05/23 07:38:41;;;;;;;1.70;0.80;;;;;;;20.38;48.22;99443.27;1737454;80;21053;-62
2021/05/23 07:41:08;;;;;;;2.42;0.90;;;;;;;20.61;47.56;99438.36;1740053;80;21053;-62
2021/05/23 07:43:35;;;;;;;2.42;0.90;;;;;;;20.75;47.65;99440.78;1740641;80;21041;-62
2021/05/23 07:46:02;;;;;;;2.08;1.00;;;;;;;20.67;46.50;99434.78;1720717;82;21024;-61
2021/05/23 07:48:30;;;;;;;1.57;0.80;;;;;;;20.57;46.26;99439.39;1744666;82;21021;-61
2021/05/23 07:50:57;;;;;;;2.50;0.90;;;;;;;20.55;45.32;99441.11;1744756;82;21005;-61
2021/05/23 07:53:23;;;;;;;1.62;0.80;;;;;;;20.64;42.29;99432.71;1732901;82;21093;-63
2021/05/23 07:55:50;;;;;;;2.50;1.00;;;;;;;20.72;42.74;99430.41;1731885;82;21152;-63
2021/05/23 07:58:17;;;;;;;2.08;0.78;;;;;;;20.73;44.98;99436.16;1736892;82;21128;-62
2021/05/23 08:00:43;;;;;;;2.47;0.80;;;;;;;20.89;45.50;99446.77;1733419;82;21073;-63
2021/05/23 08:03:10;;;;;;;1.92;0.80;;;;;;;21.10;44.56;99447.47;1730683;82;21093;-62
2021/05/23 08:05:36;;;;;;;2.35;0.80;;;;;;;21.28;44.31;99442.47;1729613;82;21116;-62
2021/05/23 08:08:05;;;;;;;3.98;0.90;;;;;;;21.36;41.87;99446.27;1701758;82;21057;-62
2021/05/23 08:10:32;;;;;;;1.85;0.70;;;;;;;21.20;40.42;99445.59;1705348;82;21161;-63
2021/05/23 08:12:59;;;;;;;1.45;0.65;;;;;;;21.03;42.99;99454.70;1710403;83;21140;-63
2021/05/23 08:15:26;;;;;;;2.00;0.50;;;;;;;20.74;41.34;99456.56;1714875;83;21469;-63
2021/05/23 08:17:54;;;;;;;1.50;0.72;;;;;;;20.51;43.17;99465.66;1715085;82;21637;-63
2021/05/23 08:20:21;;;;;;;1.50;0.60;;;;;;;20.54;43.01;99463.59;1741693;82;21005;-63
2021/05/23 08:22:48;;;;;;;2.37;0.60;;;;;;;20.60;43.00;99465.78;1742381;82;21072;-63
2021/05/23 08:25:14;;;;;;;1.98;0.72;;;;;;;20.78;41.69;99465.79;1722084;82;21025;-64
2021/05/23 08:27:41;;;;;;;1.75;0.50;;;;;;;21.03;43.96;99471.31;1670640;85;21081;-63
2021/05/23 08:30:12;;;;;;;2.27;0.65;;;;;;;21.26;42.04;99469.69;1744803;82;21849;-63
2021/05/23 08:32:38;;;;;;;1.32;0.50;;;;;;;21.40;41.06;99472.10;1699020;84;21134;-63
2021/05/23 08:35:07;;;;;;;2.30;0.60;;;;;;;21.35;41.69;99470.38;1697003;84;20975;-63
2021/05/23 08:37:34;;;;;;;1.22;0.47;;;;;;;21.31;40.44;99471.66;1706497;84;21664;-62
2021/05/23 08:40:00;;;;;;;2.12;0.72;;;;;;;20.96;39.99;99473.85;1697172;84;21042;-63
2021/05/23 08:42:27;;;;;;;1.60;0.50;;;;;;;20.76;39.60;99476.38;1706592;84;21135;-63
2021/05/23 08:44:54;;;;;;;1.45;0.50;;;;;;;20.86;40.53;99483.43;1706277;84;21051;-63
2021/05/23 08:47:21;;;;;;;1.55;0.50;;;;;;;20.98;40.00;99475.69;1708643;83;21097;-63
2021/05/23 08:49:49;;;;;;;2.55;0.50;;;;;;;21.16;41.16;99464.05;1710697;84;21568;-63
2021/05/23 08:52:19;;;;;;;2.58;0.50;;;;;;;21.32;39.93;99459.43;1706712;84;21531;-63
2021/05/23 08:54:48;;;;;;;2.10;0.50;;;;;;;21.54;39.87;99461.45;1711670;83;21464;-63
2021/05/23 08:57:19;;;;;;;2.10;0.78;;;;;;;21.74;39.32;99467.37;1707330;83;21100;-63
2021/05/23 08:59:46;;;;;;;2.98;0.60;;;;;;;21.79;38.48;99458.22;1714543;83;21014;-62
2021/05/23 09:02:12;;;;;;;3.77;0.80;;;;;;;21.82;38.23;99453.35;1740696;82;21124;-63
2021/05/23 09:04:51;;;;;;;2.75;0.75;;;;;;;21.93;39.06;99458.45;1741034;81;21900;-63
2021/05/23 09:07:19;;;;;;;1.72;0.60;;;;;;;21.99;38.60;99452.86;1740183;82;21650;-63
2021/05/23 09:09:48;;;;;;;3.08;0.70;;;;;;;22.02;38.27;99446.03;1739835;82;21045;-64
2021/05/23 09:12:17;;;;;;;1.50;0.60;;;;;;;21.86;37.93;99443.75;1729096;81;21108;-63
2021/05/23 09:14:50;;;;;;;2.70;0.60;;;;;;;21.91;37.08;99443.55;1752431;81;21076;-63
2021/05/23 09:17:25;;;;;;;1.60;0.57;;;;;;;22.07;39.21;99451.30;1744262;80;21064;-64
2021/05/23 09:19:53;;;;;;;5.42;1.27;;;;;;;22.40;38.79;99452.95;1746620;82;21025;-63
2021/05/23 09:22:23;;;;;;;3.35;0.82;;;;;;;22.46;36.02;99451.55;1746757;81;21119;-64
2021/05/23 09:24:56;;;;;;;1.55;0.80;;;;;;;22.41;38.37;99449.84;1743076;82;21016;-63
2021/05/23 09:27:27;;;;;;;1.98;0.80;;;;;;;22.43;37.95;99444.73;1716764;82;21678;-63
2021/05/23 09:30:16;;;;;;;3.02;0.90;;;;;;;22.60;37.76;99454.08;1741646;81;20977;-63
2021/05/23 09:32:44;;;;;;;1.80;0.60;;;;;;;22.67;35.62;99444.57;1745609;81;21127;-63
2021/05/23 09:35:10;;;;;;;3.67;1.00;;;;;;;22.78;34.61;99451.19;1740656;82;21050;-63
2021/05/23 09:37:36;;;;;;;1.25;0.60;;;;;;;22.90;35.90;99454.45;1720010;82;21092;-63
2021/05/23 09:40:18;;;;;;;1.57;0.88;;;;;;;22.85;36.19;99453.33;1746037;81;21020;-63
2021/05/23 09:42:53;;;;;;;1.47;0.72;;;;;;;22.86;35.76;99443.84;1742159;81;21044;-64
2021/05/23 09:45:21;;;;;;;1.95;0.50;;;;;;;22.86;34.69;99439.69;1739192;82;21049;-63
2021/05/23 09:47:58;;;;;;;2.65;0.90;;;;;;;22.83;34.46;99440.41;1741597;81;21092;-62
2021/05/23 09:50:41;;;;;;;2.70;0.72;;;;;;;22.74;34.76;99435.03;1740944;82;21049;-63
2021/05/23 09:53:26;;;;;;;2.47;0.50;;;;;;;22.61;34.51;99430.73;1740368;82;21129;-64
2021/05/23 09:56:07;;;;;;;2.27;0.60;;;;;;;22.25;32.28;99433.17;1740588;82;21049;-63
2021/05/23 09:58:39;;;;;;;1.67;0.90;;;;;;;21.92;33.36;99436.04;1761198;81;21587;-63
2021/05/23 10:01:09;;;;;;;3.02;0.62;;;;;;;21.64;34.32;99431.87;1745635;81;21089;-63
2021/05/23 10:03:40;;;;;;;2.52;0.57;;;;;;;21.66;33.98;99448.35;1748913;81;21038;-63
2021/05/23 10:06:08;;;;;;;3.05;0.90;;;;;;;21.63;34.02;99457.38;1767270;81;21018;-63
2021/05/23 10:08:35;;;;;;;2.12;0.80;;;;;;;21.54;34.59;99451.16;1752136;81;21084;-63
2021/05/23 10:11:02;;;;;;;3.10;0.68;;;;;;;21.46;34.94;99445.20;1742623;81;21036;-63
2021/05/23 10:13:29;;;;;;;1.87;0.60;;;;;;;21.47;35.46;99448.78;1748623;81;21057;-63
2021/05/23 10:15:56;;;;;;;1.67;0.57;;;;;;;21.55;35.40;99453.34;1767124;81;21286;-64
2021/05/23 10:18:26;;;;;;;1.17;0.70;;;;;;;21.66;34.60;99449.73;1757838;81;21595;-63
2021/05/23 10:20:55;;;;;;;1.80;0.72;;;;;;;21.74;34.25;99441.05;1721335;81;21037;-63
2021/05/23 10:23:34;;;;;;;2.80;0.80;;;;;;;21.94;34.12;99454.49;1741452;82;21087;-63
2021/05/23 10:26:03;;;;;;;3.08;0.70;;;;;;;22.16;35.01;99451.15;1739154;82;21048;-64
2021/05/23 10:28:29;;;;;;;2.52;0.70;;;;;;;22.35;35.50;99449.89;1765099;81;21112;-64
2021/05/23 10:30:57;;;;;;;2.08;0.72;;;;;;;22.47;34.09;99449.79;1739942;81;21061;-64
2021/05/23 10:33:23;;;;;;;1.60;0.60;;;;;;;22.39;33.40;99442.44;1739135;82;21136;-63
2021/05/23 10:35:52;;;;;;;2.08;0.55;;;;;;;22.25;32.63;99449.00;1739298;82;21021;-63
2021/05/23 10:38:22;;;;;;;2.50;0.50;;;;;;;22.18;33.33;99452.39;1743894;81;21655;-63
2021/05/23 10:41:04;;;;;;;3.00;0.70;;;;;;;22.11;34.55;99447.23;1744263;81;21013;-63
2021/05/23 10:43:34;;;;;;;2.17;0.50;;;;;;;21.92;33.80;99450.70;1761200;81;21052;-64
2021/05/23 10:46:13;;;;;;;2.27;0.53;;;;;;;21.98;35.26;99446.52;1767412;81;21017;-64
2021/05/23 10:48:52;;;;;;;2.15;0.60;;;;;;;22.24;35.77;99444.64;1763858;81;21053;-63
2021/05/23 10:51:19;;;;;;;2.52;0.65;;;;;;;22.53;35.09;99448.34;1661910;86;21053;-63
2021/05/23 10:53:46;;;;;;;2.80;1.12;;;;;;;22.73;32.82;99447.90;1718097;83;21117;-63
2021/05/23 10:56:28;;;;;;;2.72;0.80;;;;;;;22.77;33.60;99452.37;1715755;83;21559;-63
2021/05/23 10:59:03;;;;;;;2.50;1.07;;;;;;;22.65;34.38;99447.46;1669255;84;21100;-63
2021/05/23 11:01:46;;;;;;;4.70;1.80;;;;;;;22.22;34.55;99450.53;1689498;85;21136;-62
2021/05/23 11:04:17;;;;;;;3.65;1.00;;;;;;;21.89;35.37;99439.49;1691832;84;21077;-65
2021/05/23 11:06:46;;;;;;;4.10;1.00;;;;;;;21.67;35.52;99454.70;1689747;84;21153;-63
2021/05/23 11:09:20;;;;;;;2.55;1.00;;;;;;;21.51;36.38;99457.39;1680426;84;21118;-62
2021/05/23 11:11:48;;;;;;;1.80;0.90;;;;;;;21.21;34.73;99457.48;1656798;85;21138;-63
2021/05/23 11:14:23;;;;;;;2.37;0.68;;;;;;;20.94;36.56;99465.88;1695387;83;21097;-64
2021/05/23 11:16:53;;;;;;;1.37;0.75;;;;;;;20.86;36.83;99466.83;1715016;83;21088;-63
2021/05/23 11:19:22;;;;;;;1.92;0.70;;;;;;;20.93;34.51;99460.72;1710626;83;21627;-63
2021/05/23 11:21:52;;;;;;;3.05;1.10;;;;;;;21.14;36.35;99456.69;1707280;83;21072;-63
2021/05/23 11:24:31;;;;;;;2.22;0.70;;;;;;;21.44;35.81;99451.65;1695424;83;21089;-62
2021/05/23 11:27:20;;;;;;;1.42;0.70;;;;;;;21.73;34.48;99447.75;1696115;83;21132;-62
2021/05/23 11:29:47;;;;;;;3.72;0.70;;;;;;;21.84;33.96;99452.44;1715374;83;21052;-62
2021/05/23 11:32:14;;;;;;;2.22;0.70;;;;;;;21.69;34.68;99454.57;1707324;83;21072;-62
2021/05/23 11:34:41;;;;;;;1.42;0.60;;;;;;;21.59;35.21;99459.23;1710955;83;21072;-62
2021/05/23 11:37:07;;;;;;;1.22;0.60;;;;;;;21.60;34.76;99450.34;1707169;83;21093;-62
2021/05/23 11:39:34;;;;;;;1.22;0.42;;;;;;;21.75;34.58;99448.22;1723211;83;21545;-63
2021/05/23 11:42:03;;;;;;;1.87;0.60;;;;;;;21.96;34.73;99461.31;1715630;83;21088;-62
2021/05/23 11:44:38;;;;;;;2.27;0.72;;;;;;;22.15;32.51;99467.55;1701055;83;21124;-63
2021/05/23 11:47:05;;;;;;;1.57;0.72;;;;;;;22.14;32.45;99454.27;1694496;83;21084;-61